.
WxDataArchive / Data Records for 2014-01-19
2014-01-18 January 2014 2014-01-20

Data Records for Sunday, 19 January 2014

Time	Temp	Chill	HIndex	Humid	Dewpt	 Wind 	HiWind	WindDir	Rain 	Barom 
-----	----	-----	------	-----	-----	------	------	-------	-----	----- 
00:00	14.8	14.8	14.8	87	11.6	0	0	---	0.00	29.811 
00:05	14.4	14.4	14.4	87	11.3	0	0	---	0.00	29.811 
00:10	14.1	14.1	14.1	87	11.0	0	0	---	0.00	29.811 
00:15	13.8	13.8	13.8	87	10.7	0	0	---	0.00	29.802 
00:20	13.3	13.3	13.3	87	10.2	0	0	---	0.00	29.802 
00:25	12.9	12.9	12.9	87	9.8	0	0	---	0.00	29.802 
00:30	12.4	12.4	12.4	87	9.3	0	0	---	0.00	29.804 
00:35	12.1	12.1	12.1	86	8.7	0	0	---	0.00	29.804 
00:40	11.6	11.6	11.6	86	8.2	0	0	---	0.00	29.804 
00:45	11.2	11.2	11.2	86	7.8	0	0	---	0.00	29.804 
00:50	10.9	10.9	10.9	86	7.6	0	0	---	0.00	29.804 
00:55	10.5	10.5	10.5	86	7.2	0	0	---	0.00	29.804 
01:00	10.2	10.2	10.2	86	6.9	0	0	---	0.00	29.812 
01:05	10.0	10.0	10.0	86	6.7	0	0	---	0.00	29.812 
01:10	9.9	9.9	9.9	86	6.6	0	0	---	0.00	29.812 
01:15	9.7	9.7	9.7	86	6.4	0	0	---	0.00	29.817 
01:20	9.7	9.7	9.7	86	6.4	0	0	---	0.00	29.817 
01:25	9.9	9.9	9.9	86	6.6	0	0	---	0.00	29.817 
01:30	10.0	10.0	10.0	86	6.7	0	0	---	0.00	29.819 
01:35	10.2	10.2	10.2	87	7.1	0	0	---	0.00	29.819 
01:40	10.5	10.5	10.5	87	7.4	0	0	---	0.00	29.819 
01:45	11.1	11.1	11.1	87	8.0	0	0	---	0.00	29.823 
01:50	11.6	11.6	11.6	87	8.5	0	0	---	0.00	29.823 
01:55	11.9	11.9	11.9	88	9.0	0	0	---	0.00	29.823 
02:00	12.3	12.3	12.3	88	9.4	0	0	---	0.00	29.822 
02:05	12.6	12.6	12.6	88	9.7	0	0	---	0.00	29.822 
02:10	13.1	13.1	13.1	88	10.2	0	0	---	0.00	29.822 
02:15	13.6	13.6	13.6	88	10.7	0	1	90	0.00	29.816 
02:20	14.0	14.0	14.0	88	11.1	0	0	---	0.00	29.816 
02:25	14.1	14.1	14.1	88	11.2	0	0	---	0.00	29.816 
02:30	14.4	14.4	14.4	88	11.5	0	0	---	0.00	29.814 
02:35	14.6	14.6	14.6	88	11.7	0	0	---	0.00	29.814 
02:40	14.6	14.6	14.6	88	11.7	0	0	---	0.00	29.814 
02:45	14.6	14.6	14.6	88	11.7	0	0	---	0.00	29.814 
02:50	14.6	14.6	14.6	88	11.7	0	0	---	0.00	29.814 
02:55	14.4	14.4	14.4	88	11.5	0	0	---	0.00	29.814 
03:00	14.1	14.1	14.1	88	11.2	0	0	---	0.00	29.826 
03:05	14.0	14.0	14.0	87	10.9	0	0	---	0.00	29.826 
03:10	13.6	13.6	13.6	87	10.5	0	0	---	0.00	29.826 
03:15	13.1	13.1	13.1	87	10.0	0	0	---	0.00	29.836 
03:20	12.9	12.9	12.9	87	9.8	0	0	---	0.00	29.836 
03:25	12.6	12.6	12.6	87	9.5	0	0	---	0.00	29.836 
03:30	12.3	12.3	12.3	87	9.2	0	0	---	0.00	29.837 
03:35	12.3	12.3	12.3	87	9.2	0	0	---	0.00	29.837 
03:40	12.4	12.4	12.4	87	9.3	0	0	---	0.00	29.837 
03:45	12.8	12.8	12.8	88	9.9	0	0	---	0.00	29.835 
03:50	13.1	13.1	13.1	88	10.2	0	1	90	0.00	29.835 
03:55	13.5	13.5	13.5	88	10.6	0	0	---	0.00	29.835 
04:00	13.8	13.8	13.8	88	10.9	0	0	---	0.00	29.842 
04:05	14.0	14.0	14.0	88	11.1	0	0	---	0.00	29.842 
04:10	14.1	14.1	14.1	88	11.2	0	0	---	0.00	29.842 
04:15	14.3	14.3	14.3	88	11.4	0	1	90	0.00	29.842 
04:20	14.6	14.6	14.6	88	11.7	0	1	90	0.00	29.842 
04:25	14.8	14.8	14.8	88	11.9	0	1	90	0.00	29.842 
04:30	14.9	14.9	14.9	88	12.0	0	0	---	0.00	29.846 
04:35	15.1	15.1	15.1	88	12.2	0	1	90	0.00	29.846 
04:40	15.1	15.1	15.1	88	12.2	0	0	---	0.00	29.846 
04:45	15.2	15.2	15.2	88	12.3	0	1	90	0.00	29.847 
04:50	15.4	15.4	15.4	88	12.5	0	0	---	0.00	29.847 
04:55	15.6	15.6	15.6	88	12.7	0	0	---	0.00	29.847 
05:00	15.7	15.7	15.7	88	12.8	0	1	90	0.00	29.836 
05:05	15.9	15.9	15.9	88	13.0	0	0	---	0.00	29.836 
05:10	15.9	15.9	15.9	88	13.0	0	1	90	0.00	29.836 
05:15	16.2	16.2	16.2	89	13.5	0	1	90	0.00	29.847 
05:20	16.4	16.4	16.4	89	13.7	0	2	90	0.00	29.847 
05:25	16.4	16.4	16.4	89	13.7	0	1	90	0.00	29.847 
05:30	16.5	16.5	16.5	88	13.6	0	2	90	0.00	29.855 
05:35	16.5	16.5	16.5	88	13.6	0	1	90	0.00	29.855 
05:40	16.5	16.5	16.5	88	13.6	0	1	90	0.00	29.855 
05:45	16.7	16.7	16.7	88	13.8	0	2	90	0.00	29.864 
05:50	16.7	16.7	16.7	88	13.8	0	2	90	0.00	29.864 
05:55	16.7	16.7	16.7	88	13.8	0	2	90	0.00	29.864 
06:00	16.9	16.9	16.9	88	14.0	0	1	90	0.00	29.874 
06:05	16.9	16.9	16.9	88	14.0	0	1	90	0.00	29.874 
06:10	17.0	17.0	17.0	88	14.1	0	1	90	0.00	29.874 
06:15	17.0	17.0	17.0	88	14.1	0	1	90	0.00	29.861 
06:20	17.2	17.2	17.2	88	14.3	0	1	90	0.00	29.861 
06:25	17.2	17.2	17.2	88	14.3	0	1	90	0.00	29.861 
06:30	17.2	17.2	17.2	88	14.3	0	1	90	0.00	29.860 
06:35	17.3	17.3	17.3	88	14.4	0	1	90	0.00	29.860 
06:40	17.3	17.3	17.3	88	14.4	0	2	90	0.00	29.860 
06:45	17.3	17.3	17.3	88	14.4	0	1	90	0.00	29.862 
06:50	17.5	17.5	17.5	88	14.6	0	2	90	0.00	29.862 
06:55	17.5	17.5	17.5	88	14.6	0	2	90	0.00	29.862 
07:00	17.7	17.7	17.7	89	15.0	0	3	90	0.00	29.862 
07:05	17.8	17.8	17.8	88	14.9	1	3	270	0.00	29.862 
07:10	18.0	18.0	18.0	88	15.1	0	3	270	0.00	29.862 
07:15	18.1	18.1	18.1	88	15.2	1	4	270	0.00	29.859 
07:20	18.1	18.1	18.1	88	15.2	0	3	270	0.00	29.859 
07:25	18.3	18.3	18.3	88	15.4	0	2	270	0.00	29.859 
07:30	18.3	18.3	18.3	88	15.4	1	3	270	0.00	29.855 
07:35	18.4	18.4	18.4	88	15.5	0	2	270	0.00	29.855 
07:40	18.4	18.4	18.4	88	15.5	1	2	270	0.00	29.855 
07:45	18.4	18.4	18.4	88	15.5	0	2	270	0.00	29.844 
07:50	18.4	18.4	18.4	88	15.5	1	4	270	0.00	29.844 
07:55	18.4	18.4	18.4	88	15.5	1	3	270	0.00	29.844 
08:00	18.4	18.4	18.4	88	15.5	2	5	270	0.00	29.855 
08:05	18.3	18.3	18.3	88	15.4	3	10	248	0.00	29.855 
08:10	18.1	18.1	18.1	87	14.9	2	8	248	0.00	29.855 
08:15	18.1	18.1	18.1	87	14.9	2	4	248	0.00	29.859 
08:20	18.0	18.0	18.0	87	14.8	1	5	248	0.00	29.859 
08:25	17.8	17.8	17.8	87	14.6	1	3	248	0.00	29.859 
08:30	17.7	17.7	17.7	87	14.5	2	4	248	0.00	29.849 
08:35	17.7	17.7	17.7	86	14.2	2	5	248	0.00	29.849 
08:40	17.5	17.5	17.5	86	14.0	1	4	248	0.00	29.849 
08:45	17.2	17.2	17.2	86	13.7	2	5	248	0.00	29.859 
08:50	17.0	17.0	17.0	86	13.6	1	3	248	0.00	29.859 
08:55	17.0	17.0	17.0	86	13.6	2	4	248	0.00	29.859 
09:00	17.2	17.2	17.2	86	13.7	1	3	248	0.00	29.855 
09:05	17.3	17.3	17.3	86	13.8	1	5	248	0.00	29.855 
09:10	17.2	17.2	17.2	85	13.5	1	4	248	0.00	29.855 
09:15	17.0	17.0	17.0	85	13.3	1	4	248	0.00	29.861 
09:20	17.0	17.0	17.0	85	13.3	2	4	248	0.00	29.861 
09:25	16.7	16.7	16.7	85	13.0	2	9	248	0.00	29.861 
09:30	16.4	16.4	16.4	84	12.4	3	7	248	0.00	29.861 
09:35	16.2	16.2	16.2	84	12.2	2	5	248	0.00	29.861 
09:40	16.2	16.2	16.2	84	12.2	2	7	248	0.00	29.861 
09:45	16.2	16.2	16.2	84	12.2	2	7	248	0.00	29.861 
09:50	16.5	16.5	16.5	84	12.5	1	5	248	0.00	29.861 
09:55	16.9	16.9	16.9	84	12.9	1	4	248	0.00	29.861 
10:00	17.0	17.0	17.0	83	12.7	2	7	248	0.00	29.865 
10:05	17.2	17.2	17.2	83	12.9	2	9	248	0.00	29.865 
10:10	17.0	17.0	17.0	82	12.5	2	5	248	0.00	29.865 
10:15	17.0	17.0	17.0	81	12.2	1	5	248	0.00	29.859 
10:20	17.0	17.0	17.0	81	12.2	3	10	248	0.00	29.859 
10:25	16.5	10.2	16.5	80	11.4	4	7	248	0.00	29.859 
10:30	16.4	16.4	16.4	81	11.6	2	6	248	0.00	29.856 
10:35	16.5	16.5	16.5	81	11.7	2	5	248	0.00	29.856 
10:40	16.7	16.7	16.7	81	11.9	2	5	248	0.00	29.856 
10:45	16.9	16.9	16.9	81	12.1	2	7	248	0.00	29.857 
10:50	17.0	17.0	17.0	81	12.2	2	6	225	0.00	29.857 
10:55	17.3	17.3	17.3	80	12.2	2	5	248	0.00	29.857 
11:00	17.5	17.5	17.5	80	12.4	3	8	248	0.00	29.847 
11:05	17.7	17.7	17.7	80	12.6	3	7	248	0.00	29.847 
11:10	18.0	18.0	18.0	80	12.9	2	5	248	0.00	29.847 
11:15	18.3	18.3	18.3	80	13.2	3	10	248	0.00	29.839 
11:20	18.6	18.6	18.6	80	13.5	2	10	248	0.00	29.839 
11:25	18.9	18.9	18.9	79	13.5	1	4	270	0.00	29.839 
11:30	19.2	19.2	19.2	79	13.8	1	6	248	0.00	29.832 
11:35	19.4	19.4	19.4	78	13.7	2	7	248	0.00	29.832 
11:40	19.5	19.5	19.5	78	13.8	3	11	248	0.00	29.832 
11:45	19.7	19.7	19.7	77	13.7	2	7	248	0.00	29.832 
11:50	19.9	19.9	19.9	77	13.9	2	5	248	0.00	29.832 
11:55	20.0	20.0	20.0	77	14.0	2	6	248	0.00	29.832 
12:00	20.0	20.0	20.0	77	14.0	2	9	248	0.00	29.817 
12:05	20.0	20.0	20.0	77	14.0	2	6	248	0.00	29.817 
12:10	20.3	20.3	20.3	77	14.3	2	7	248	0.00	29.817 
12:15	20.5	20.5	20.5	77	14.5	3	7	248	0.00	29.805 
12:20	20.6	20.6	20.6	77	14.6	3	9	248	0.00	29.805 
12:25	20.6	20.6	20.6	77	14.6	3	10	248	0.00	29.805 
12:30	20.8	20.8	20.8	77	14.7	3	6	248	0.00	29.794 
12:35	21.1	21.1	21.1	77	15.0	3	10	248	0.00	29.794 
12:40	21.3	21.3	21.3	77	15.2	3	13	248	0.00	29.794 
12:45	21.4	21.4	21.4	76	15.0	3	7	248	0.00	29.784 
12:50	21.6	21.6	21.6	76	15.2	3	9	248	0.00	29.784 
12:55	21.8	16.3	21.8	76	15.4	4	11	248	0.00	29.784 
13:00	22.2	22.2	22.2	76	15.8	3	7	248	0.00	29.771 
13:05	22.5	22.5	22.5	76	16.1	3	10	248	0.00	29.771 
13:10	22.9	22.9	22.9	75	16.2	2	7	248	0.00	29.771 
13:15	23.2	23.2	23.2	75	16.5	3	11	248	0.00	29.757 
13:20	23.5	23.5	23.5	74	16.5	3	10	248	0.00	29.757 
13:25	23.8	23.8	23.8	73	16.4	3	7	248	0.00	29.757 
13:30	23.8	23.8	23.8	73	16.4	3	10	248	0.00	29.747 
13:35	23.9	23.9	23.9	74	16.8	3	10	248	0.00	29.747 
13:40	24.2	24.2	24.2	73	16.8	3	8	248	0.00	29.747 
13:45	24.4	24.4	24.4	73	17.0	3	11	248	0.00	29.741 
13:50	24.5	24.5	24.5	73	17.1	3	10	248	0.00	29.741 
13:55	24.7	24.7	24.7	73	17.3	2	10	248	0.00	29.741 
14:00	25.0	20.0	25.0	73	17.6	4	13	248	0.00	29.734 
14:05	25.0	25.0	25.0	73	17.6	3	12	248	0.00	29.734 
14:10	25.1	25.1	25.1	73	17.7	3	10	248	0.00	29.734 
14:15	25.1	20.1	25.1	72	17.4	4	12	248	0.00	29.729 
14:20	25.3	25.3	25.3	73	17.9	2	9	248	0.00	29.729 
14:25	25.3	20.3	25.3	73	17.9	4	10	248	0.00	29.729 
14:30	25.4	25.4	25.4	73	18.0	2	13	248	0.00	29.717 
14:35	25.4	25.4	25.4	73	18.0	3	10	270	0.00	29.717 
14:40	25.4	25.4	25.4	73	18.0	3	8	248	0.00	29.717 
14:45	25.4	25.4	25.4	73	18.0	3	10	248	0.00	29.718 
14:50	25.6	25.6	25.6	73	18.2	3	9	270	0.00	29.718 
14:55	25.7	25.7	25.7	73	18.3	3	10	248	0.00	29.718 
15:00	25.8	20.9	25.8	73	18.4	4	12	248	0.00	29.714 
15:05	26.0	26.0	26.0	72	18.2	3	10	248	0.00	29.714 
15:10	26.0	20.0	26.0	72	18.2	5	13	248	0.00	29.714 
15:15	26.1	26.1	26.1	73	18.7	3	9	248	0.00	29.714 
15:20	26.3	21.5	26.3	73	18.8	4	16	248	0.00	29.714 
15:25	26.4	21.6	26.4	72	18.6	4	10	248	0.00	29.714 
15:30	26.6	21.8	26.6	73	19.1	4	10	248	0.00	29.715 
15:35	26.7	26.7	26.7	73	19.2	2	6	248	0.00	29.715 
15:40	27.0	27.0	27.0	72	19.2	2	6	248	0.00	29.715 
15:45	27.3	27.3	27.3	71	19.2	3	11	248	0.00	29.707 
15:50	27.5	27.5	27.5	71	19.4	3	9	248	0.00	29.707 
15:55	27.6	27.6	27.6	70	19.1	3	11	248	0.00	29.707 
16:00	27.6	23.0	27.6	70	19.1	4	10	248	0.00	29.702 
16:05	27.6	27.6	27.6	70	19.1	2	9	248	0.00	29.702 
16:10	27.8	23.2	27.8	70	19.3	4	13	248	0.00	29.702 
16:15	27.9	23.3	27.9	70	19.4	4	14	270	0.00	29.703 
16:20	28.1	28.1	28.1	70	19.6	3	9	248	0.00	29.703 
16:25	28.2	23.7	28.2	69	19.4	4	10	248	0.00	29.703 
16:30	28.4	22.8	28.4	69	19.5	5	12	248	0.00	29.702 
16:35	28.4	23.9	28.4	69	19.5	4	13	248	0.00	29.702 
16:40	28.4	28.4	28.4	69	19.5	3	13	248	0.00	29.702 
16:45	28.5	24.0	28.5	69	19.6	4	10	248	0.00	29.696 
16:50	28.5	28.5	28.5	69	19.6	3	7	248	0.00	29.696 
16:55	28.7	28.7	28.7	69	19.8	3	13	248	0.00	29.696 
17:00	28.5	24.0	28.5	69	19.6	4	9	248	0.00	29.693 
17:05	28.4	28.4	28.4	70	19.9	3	10	248	0.00	29.693 
17:10	28.2	23.7	28.2	70	19.7	4	11	248	0.00	29.693 
17:15	28.2	28.2	28.2	70	19.7	3	7	248	0.00	29.693 
17:20	28.2	28.2	28.2	71	20.0	3	6	248	0.00	29.693 
17:25	28.1	28.1	28.1	71	19.9	3	10	248	0.00	29.693 
17:30	28.2	28.2	28.2	71	20.0	3	11	248	0.00	29.684 
17:35	28.2	28.2	28.2	71	20.0	2	6	248	0.00	29.684 
17:40	28.2	28.2	28.2	72	20.4	2	6	248	0.00	29.684 
17:45	28.4	28.4	28.4	72	20.5	2	6	248	0.00	29.681 
17:50	28.2	28.2	28.2	72	20.4	1	5	248	0.00	29.681 
17:55	28.2	28.2	28.2	72	20.4	1	4	248	0.00	29.681 
18:00	28.2	28.2	28.2	72	20.4	1	5	270	0.00	29.674 
18:05	28.2	28.2	28.2	73	20.7	2	7	248	0.00	29.674 
18:10	28.2	28.2	28.2	73	20.7	2	5	248	0.00	29.674 
18:15	28.2	28.2	28.2	73	20.7	2	9	248	0.00	29.673 
18:20	28.4	28.4	28.4	73	20.9	1	4	248	0.00	29.673 
18:25	28.4	28.4	28.4	73	20.9	1	4	248	0.00	29.673 
18:30	28.4	28.4	28.4	73	20.9	2	12	270	0.00	29.668 
18:35	28.5	28.5	28.5	73	21.0	2	6	248	0.00	29.668 
18:40	28.5	28.5	28.5	72	20.6	2	6	248	0.00	29.668 
18:45	28.5	28.5	28.5	72	20.6	1	5	248	0.00	29.662 
18:50	28.7	28.7	28.7	73	21.2	2	7	248	0.00	29.662 
18:55	28.7	28.7	28.7	72	20.8	2	6	248	0.00	29.662 
19:00	28.8	28.8	28.8	73	21.3	2	5	248	0.00	29.659 
19:05	29.0	29.0	29.0	72	21.1	2	6	270	0.00	29.659 
19:10	29.0	29.0	29.0	72	21.1	2	5	248	0.00	29.659 
19:15	29.1	29.1	29.1	72	21.2	1	5	248	0.00	29.645 
19:20	29.1	29.1	29.1	72	21.2	2	5	248	0.00	29.645 
19:25	29.1	29.1	29.1	72	21.2	2	6	248	0.00	29.645 
19:30	29.1	29.1	29.1	72	21.2	2	9	248	0.00	29.645 
19:35	29.1	29.1	29.1	72	21.2	1	4	248	0.00	29.645 
19:40	29.1	29.1	29.1	73	21.5	1	4	248	0.00	29.645 
19:45	29.1	29.1	29.1	73	21.5	1	4	248	0.00	29.645 
19:50	29.4	29.4	29.4	73	21.8	2	5	248	0.00	29.645 
19:55	29.4	29.4	29.4	73	21.8	2	5	248	0.00	29.645 
20:00	29.5	29.5	29.5	73	21.9	2	10	248	0.00	29.650 
20:05	29.7	29.7	29.7	73	22.1	2	9	248	0.00	29.650 
20:10	29.8	29.8	29.8	73	22.2	2	6	248	0.00	29.650 
20:15	29.8	29.8	29.8	73	22.2	1	5	248	0.00	29.662 
20:20	30.1	30.1	30.1	73	22.5	2	6	248	0.00	29.662 
20:25	30.3	30.3	30.3	73	22.7	1	3	248	0.00	29.662 
20:30	30.6	30.6	30.6	73	23.0	3	8	248	0.00	29.659 
20:35	30.9	30.9	30.9	72	23.0	2	6	248	0.00	29.659 
20:40	31.0	31.0	31.0	72	23.1	2	11	248	0.00	29.659 
20:45	31.2	31.2	31.2	72	23.2	3	11	248	0.00	29.655 
20:50	31.3	31.3	31.3	72	23.3	3	7	248	0.00	29.655 
20:55	31.3	31.3	31.3	72	23.3	3	10	248	0.00	29.655 
21:00	31.3	31.3	31.3	72	23.3	2	6	248	0.00	29.639 
21:05	31.2	31.2	31.2	72	23.2	2	6	248	0.00	29.639 
21:10	31.2	31.2	31.2	72	23.2	2	7	248	0.00	29.639 
21:15	31.3	31.3	31.3	72	23.3	2	6	248	0.00	29.641 
21:20	31.3	31.3	31.3	72	23.3	2	11	248	0.00	29.641 
21:25	31.3	31.3	31.3	72	23.3	2	9	248	0.00	29.641 
21:30	31.5	31.5	31.5	72	23.5	2	9	248	0.00	29.642 
21:35	31.5	31.5	31.5	72	23.5	2	6	270	0.00	29.642 
21:40	31.5	31.5	31.5	71	23.2	2	9	248	0.00	29.642 
21:45	31.5	31.5	31.5	71	23.2	2	7	248	0.00	29.631 
21:50	31.6	27.6	31.6	71	23.3	4	13	248	0.00	29.631 
21:55	31.8	31.8	31.8	71	23.5	2	7	248	0.00	29.631 
22:00	31.8	31.8	31.8	71	23.5	2	6	248	0.00	29.626 
22:05	31.8	31.8	31.8	71	23.5	2	7	248	0.00	29.626 
22:10	31.8	31.8	31.8	71	23.5	1	5	248	0.00	29.626 
22:15	31.6	31.6	31.6	71	23.3	1	5	248	0.00	29.624 
22:20	31.6	31.6	31.6	71	23.3	2	5	248	0.00	29.624 
22:25	31.8	31.8	31.8	71	23.5	3	9	248	0.00	29.624 
22:30	31.9	31.9	31.9	70	23.2	2	7	248	0.00	29.612 
22:35	31.9	31.9	31.9	70	23.2	2	6	248	0.00	29.612 
22:40	32.1	32.1	32.1	70	23.4	3	10	248	0.00	29.612 
22:45	32.1	32.1	32.1	70	23.4	2	11	248	0.00	29.610 
22:50	32.1	32.1	32.1	70	23.4	2	7	248	0.00	29.610 
22:55	32.2	32.2	32.2	69	23.2	3	8	248	0.00	29.610 
23:00	32.4	32.4	32.4	69	23.4	2	7	248	0.00	29.600 
23:05	32.4	32.4	32.4	69	23.4	1	7	248	0.00	29.600 
23:10	32.4	32.4	32.4	69	23.4	2	6	248	0.00	29.600 
23:15	32.4	32.4	32.4	69	23.4	3	6	248	0.00	29.593 
23:20	32.4	32.4	32.4	69	23.4	2	6	248	0.00	29.593 
23:25	32.5	32.5	32.5	69	23.5	2	10	248	0.00	29.593 
23:30	32.5	32.5	32.5	69	23.5	2	6	248	0.00	29.586 
23:35	32.5	32.5	32.5	69	23.5	1	4	248	0.00	29.586 
23:40	32.5	32.5	32.5	69	23.5	2	6	248	0.00	29.586 
23:45	32.7	32.7	32.7	69	23.7	2	7	248	0.00	29.576 
23:50	32.8	32.8	32.8	69	23.8	2	6	248	0.00	29.576 
23:55	32.9	32.9	32.9	69	23.9	2	5	248	0.00	29.576 

CoCoRaHS
IN-AL-39
A2 Web Hosting
Creative Commons License
GoDaddy
search engine by freefind advanced

loaded 2018-11-19 10:21:34 • last modified 2010-11-18 10:43:29
Privacy PolicyDisclaimer
• wx.awcolley.com is powered by PmWiki v.2002016 •
• all content (unless otherwise noted) © 2018 A W Colley